This is the latest recevied weather packets stored in our database for station/object KE4LOJ. If no packets are shown the sender has not sent any weather packets the latest 10 day(s).
| Time | Temp. | Humidity | Pressure | Rain* | Wind** | Luminosity | Snow |
|---|---|---|---|---|---|---|---|
| 1777388842 | 25.56° C | 78% | 1020.9 hPa | 0 mm | - | 254 W/m² | - |
| 1777388539 | 25.56° C | 78% | 1021.1 hPa | 0 mm | - | 163 W/m² | - |
| 1777388234 | 25° C | 78% | 1021.1 hPa | 0 mm | - | 156 W/m² | - |
| 1777387930 | 25.56° C | 78% | 1020.7 hPa | 0 mm | - | 119 W/m² | - |
| 1777387626 | 26.11° C | 76% | 1020.9 hPa | 0 mm | - | 404 W/m² | - |
| 1777387323 | 25° C | 79% | 1020.8 hPa | 0 mm | - | 702 W/m² | - |
| 1777387023 | 25° C | 79% | 1020.6 hPa | 0 mm | - | 600 W/m² | - |
| 1777386719 | 23.89° C | 83% | 1020.7 hPa | 0 mm | - | 357 W/m² | - |
| 1777386416 | 25° C | 81% | 1020.7 hPa | 0 mm | - | 189 W/m² | - |
| 1777386113 | 25° C | 81% | 1020.7 hPa | 0 mm | - | 411 W/m² | - |
| 1777385810 | 25° C | 80% | 1020.6 hPa | 0 mm | - | 647 W/m² | - |
| 1777385507 | 25° C | 81% | 1020.5 hPa | 0 mm | - | 409 W/m² | - |
| 1777385204 | 24.44° C | 81% | 1020.7 hPa | 0 mm | - | 630 W/m² | - |
| 1777384900 | 24.44° C | 84% | 1020.6 hPa | 0 mm | - | 117 W/m² | - |
| 1777384598 | 24.44° C | 85% | 1020.4 hPa | 0 mm | - | 193 W/m² | - |
| 1777384297 | 23.89° C | 84% | 1020.6 hPa | 0 mm | - | 200 W/m² | - |
| 1777383993 | 23.89° C | 85% | 1020.4 hPa | 0 mm | - | 147 W/m² | - |
| 1777383689 | 23.33° C | 86% | 1020.5 hPa | 0 mm | - | 197 W/m² | - |
| 1777383386 | 23.33° C | 86% | 1020.5 hPa | 0 mm | - | 128 W/m² | - |
| 1777383082 | 23.33° C | 87% | 1020.6 hPa | 0 mm | - | 175 W/m² | - |
| 1777382779 | 23.89° C | 86% | 1020.5 hPa | 0 mm | - | 178 W/m² | - |
| 1777382475 | 23.33° C | 88% | 1020.4 hPa | 0 mm | - | 183 W/m² | - |
| 1777382171 | 23.33° C | 89% | 1020.3 hPa | 0 mm | - | 150 W/m² | - |
| 1777381868 | 22.78° C | 90% | 1020.4 hPa | 0 mm | - | 189 W/m² | - |
| 1777381566 | 22.78° C | 91% | 1020.3 hPa | 0 mm | - | 186 W/m² | - |
* Rain latest hour (hover to see other rain measurements)
** Current wind speed in m/s (hover to see current wind gust speed)